Details From KMYF - Montgomery Fld
To KBLH - BLYTHE
Flight Number N13PC
Tags None
Created
Modified
Stats Distance 132 nm / 245 km
Max Altitude 13,600 ft / 4,145 m
Waypoints 3
Social Downloads 0
Likes 0
Share VATSIM

Download

Looking for another format? Having issues loading an existing format? Contact us
Advertisement - Login to hide

Notes

None

Route

KMYF JLI KBLH

ID Type Via Altitude Latitude Longitude Leg Dist Tot Dist Heading (true) Name
O KMYF APT - 0 ft / 0 m 32.81574˚ -117.13970˚ - 0 nm - Montgomery Fld
JLI VOR - 13,600 ft / 4,145 m 33.14047˚ -116.58594˚ 34 nm 34 nm 55° / 55° JULIAN VORTAC
O KBLH APT - 0 ft / 0 m 33.61932˚ -114.71688˚ 98 nm 132 nm 72° / 73° BLYTHE

Altitude Profile

Advertisement - Login to hide

KMYF

Details ICAO KMYF
Name Montgomery Fld
Region United States
Timezone America/Los_Angeles (UTC-7.0)
Stats Elevation 427 ft / 130 m (AMSL)
Location 32.815737° -117.139705°
Runways 3
Magnetic Variation 11.493° E

METAR

KMYF 210916Z AUTO 23005KT 7SM SCT006 BKN012 OVC022 14/13 A2989 RMK AO2 T01390128

Decode

TAF

Not found

Departure Runways

ID Width Length Bearing (true) Bearing (mag) Surface Threshold Offset Overrun Length
05 151 ft / 46 m 3,403 ft / 1,037 m 64.89° 53.40° Asphalt 390 ft / 119 m 0 ft / 0 m
10L 151 ft / 46 m 4,581 ft / 1,396 m 115.10° 103.61° Asphalt 0 ft / 0 m 0 ft / 0 m
10R 59 ft / 18 m 3,404 ft / 1,038 m 115.00° 103.51° Asphalt 0 ft / 0 m 0 ft / 0 m
23 151 ft / 46 m 3,403 ft / 1,037 m 244.89° 233.40° Asphalt 0 ft / 0 m 0 ft / 0 m
28L 59 ft / 18 m 3,404 ft / 1,038 m 295.00° 283.51° Asphalt 0 ft / 0 m 0 ft / 0 m
28R 151 ft / 46 m 4,581 ft / 1,396 m 295.10° 283.61° Asphalt 1,175 ft / 358 m 0 ft / 0 m

KBLH

Details ICAO KBLH (BLH)
Name BLYTHE
Region United States
Timezone America/Los_Angeles (UTC-7.0)
Stats Elevation 399 ft / 122 m (AMSL)
Location 33.619318° -114.716882°
Runways 2
Magnetic Variation 11.069° E

METAR

KBLH 210852Z AUTO 22013KT 10SM CLR 26/06 A2967 RMK AO2 SLP039 T02610061 58005 $

Decode

TAF

TAF KBLH 210520Z 2106/2206 22012KT P6SM SCT250 FM210900 18008KT P6SM BKN250 TEMPO 2111/2115 VRB05KT FM211800 19015G22KT P6SM BKN200 FM220200 24017KT P6SM SCT200

Decode

Destination Runways

ID Width Length Bearing (true) Bearing (mag) Surface Threshold Offset Overrun Length
08 150 ft / 46 m 6,531 ft / 1,991 m 90.21° 79.14° Asphalt 0 ft / 0 m 769 ft / 234 m
17 100 ft / 30 m 5,816 ft / 1,773 m 180.22° 169.15° Asphalt 0 ft / 0 m 212 ft / 65 m
26 150 ft / 46 m 6,531 ft / 1,991 m 270.22° 259.15° Asphalt 0 ft / 0 m 424 ft / 129 m
35 100 ft / 30 m 5,816 ft / 1,773 m 0.22° 349.15° Asphalt 0 ft / 0 m 200 ft / 61 m

Popular Alternatives